createdAt,value
2023-03-06T00:01:52.349Z,7.47
2023-03-06T00:04:19.839Z,9.93
2023-03-06T00:06:47.244Z,11.60
2023-03-06T00:09:14.673Z,11.57
2023-03-06T00:11:42.094Z,11.43
2023-03-06T00:14:09.550Z,12.82
2023-03-06T00:16:37.039Z,11.57
2023-03-06T00:19:04.526Z,10.00
2023-03-06T00:21:32.024Z,10.17
2023-03-06T00:23:59.382Z,12.07
2023-03-06T00:26:26.867Z,10.15
2023-03-06T00:28:54.472Z,11.15
2023-03-06T00:31:21.923Z,9.25
2023-03-06T00:33:49.605Z,11.50
2023-03-06T00:36:17.041Z,11.68
2023-03-06T00:38:44.765Z,10.73
2023-03-06T00:41:12.425Z,12.43
2023-03-06T00:43:40.292Z,11.57
2023-03-06T00:46:07.744Z,8.57
2023-03-06T00:48:35.290Z,9.43
2023-03-06T00:51:02.932Z,8.45
2023-03-06T00:53:30.422Z,13.25
2023-03-06T00:55:57.878Z,13.55
2023-03-06T00:58:25.291Z,13.90
2023-03-06T01:00:52.776Z,11.30
2023-03-06T01:03:20.328Z,10.63
2023-03-06T01:05:47.852Z,11.07
2023-03-06T01:08:15.358Z,11.80
2023-03-06T01:10:42.801Z,14.40
2023-03-06T01:13:10.313Z,11.88
2023-03-06T01:15:37.704Z,9.95
2023-03-06T01:18:05.499Z,12.13
2023-03-06T01:20:32.923Z,13.07
2023-03-06T01:23:00.480Z,10.67
2023-03-06T01:25:28.286Z,13.82
2023-03-06T01:27:55.747Z,13.68
2023-03-06T01:30:23.273Z,11.93
2023-03-06T01:32:50.739Z,11.60
2023-03-06T01:35:18.250Z,10.50
2023-03-06T01:37:45.834Z,10.43
2023-03-06T01:40:13.647Z,15.77
2023-03-06T01:42:42.222Z,16.85
2023-03-06T01:45:15.785Z,26.13
2023-03-06T01:47:44.871Z,20.17
2023-03-06T01:50:12.302Z,19.10
2023-03-06T01:52:58.988Z,18.65
2023-03-06T01:55:31.561Z,11.82
2023-03-06T01:58:00.089Z,12.45
2023-03-06T02:00:28.192Z,13.90
2023-03-06T02:03:06.421Z,14.88
2023-03-06T02:05:33.976Z,12.60
2023-03-06T02:08:01.361Z,15.40
2023-03-06T02:10:28.833Z,14.18
2023-03-06T02:12:56.325Z,11.77
2023-03-06T02:15:24.825Z,13.90
2023-03-06T02:17:52.700Z,11.85
2023-03-06T02:20:35.242Z,12.68
2023-03-06T02:23:13.306Z,10.88
2023-03-06T02:25:41.961Z,9.60
2023-03-06T02:28:10.287Z,10.23
2023-03-06T02:30:37.787Z,9.18
2023-03-06T02:33:05.589Z,11.32
2023-03-06T02:35:34.112Z,8.50
2023-03-06T02:38:03.788Z,10.23
2023-03-06T02:40:31.354Z,7.70
2023-03-06T02:42:58.925Z,9.05
2023-03-06T02:45:36.894Z,7.18
2023-03-06T02:48:04.648Z,10.65
2023-03-06T02:50:32.174Z,11.03
2023-03-06T02:52:59.708Z,7.97
2023-03-06T02:55:27.192Z,10.23
2023-03-06T02:57:54.604Z,10.90
2023-03-06T03:00:22.268Z,8.13
2023-03-06T03:02:49.716Z,7.97
2023-03-06T03:05:17.194Z,8.40
2023-03-06T03:07:44.722Z,9.52
2023-03-06T03:10:12.679Z,9.95
2023-03-06T03:12:40.160Z,9.30
2023-03-06T03:15:07.867Z,9.63
2023-03-06T03:17:41.004Z,11.73
2023-03-06T03:20:09.447Z,11.15
2023-03-06T03:22:36.917Z,9.38
2023-03-06T03:25:04.382Z,8.48
2023-03-06T03:27:31.850Z,8.97
2023-03-06T03:29:59.431Z,10.75
2023-03-06T03:32:26.997Z,9.38
2023-03-06T03:34:55.959Z,7.93
2023-03-06T03:37:23.452Z,9.18
2023-03-06T03:39:50.855Z,7.00
2023-03-06T03:42:18.332Z,10.93
2023-03-06T03:44:45.910Z,9.77
2023-03-06T03:47:16.796Z,8.65
2023-03-06T03:49:44.402Z,10.35
2023-03-06T03:52:11.841Z,10.27
2023-03-06T03:54:39.225Z,11.05
2023-03-06T03:57:06.618Z,9.90
2023-03-06T03:59:34.518Z,11.38
2023-03-06T04:02:04.806Z,10.77
2023-03-06T04:04:32.368Z,13.33
2023-03-06T04:07:00.684Z,11.38
2023-03-06T04:09:28.122Z,9.57
2023-03-06T04:11:55.710Z,8.68
2023-03-06T04:14:23.549Z,10.45
2023-03-06T04:16:51.041Z,10.27
2023-03-06T04:19:18.490Z,10.43
2023-03-06T04:21:46.015Z,11.45
2023-03-06T04:24:13.756Z,10.18
2023-03-06T04:26:41.238Z,11.40
2023-03-06T04:29:08.811Z,9.67
2023-03-06T04:31:36.437Z,11.30
2023-03-06T04:34:03.857Z,13.27
2023-03-06T04:36:32.138Z,11.20
2023-03-06T04:38:59.962Z,10.57
2023-03-06T04:41:27.954Z,12.50
2023-03-06T04:43:55.586Z,8.85
2023-03-06T04:46:23.024Z,10.60
2023-03-06T04:48:50.580Z,10.88
2023-03-06T04:51:18.105Z,10.80
2023-03-06T04:53:45.513Z,9.67
2023-03-06T04:56:12.956Z,12.73
2023-03-06T04:58:40.463Z,11.70
2023-03-06T05:01:08.342Z,10.82
2023-03-06T05:03:35.846Z,11.63
2023-03-06T05:06:03.308Z,11.93
2023-03-06T05:08:30.733Z,11.20
2023-03-06T05:10:59.382Z,11.70
2023-03-06T05:13:27.606Z,8.75
2023-03-06T05:15:54.996Z,9.40
2023-03-06T05:18:22.548Z,8.83
2023-03-06T05:20:50.222Z,11.07
2023-03-06T05:23:17.636Z,11.52
2023-03-06T05:25:45.081Z,9.55
2023-03-06T05:28:12.697Z,11.00
2023-03-06T05:30:40.540Z,9.60
2023-03-06T05:33:08.260Z,9.90
2023-03-06T05:35:35.725Z,11.25
2023-03-06T05:38:03.282Z,11.40
2023-03-06T05:40:30.810Z,12.77
2023-03-06T05:42:58.273Z,11.83
2023-03-06T05:45:25.779Z,10.85
2023-03-06T05:47:53.185Z,11.90
2023-03-06T05:50:20.720Z,14.63
2023-03-06T05:52:48.126Z,12.98
2023-03-06T05:55:16.556Z,13.50
2023-03-06T05:57:44.010Z,13.13
2023-03-06T06:00:12.002Z,10.82
2023-03-06T06:02:39.511Z,10.98
2023-03-06T06:05:07.229Z,13.63
2023-03-06T06:07:34.714Z,11.47
2023-03-06T06:10:03.730Z,12.18
2023-03-06T06:12:31.462Z,10.88
2023-03-06T06:14:58.890Z,9.77
2023-03-06T06:17:26.337Z,10.85
2023-03-06T06:19:53.839Z,14.37
2023-03-06T06:22:21.339Z,12.90
2023-03-06T06:24:48.781Z,10.23
2023-03-06T06:27:16.296Z,11.75
2023-03-06T06:29:44.573Z,12.85
2023-03-06T06:32:12.261Z,12.90
2023-03-06T06:34:39.751Z,26.40
2023-03-06T06:37:07.288Z,18.27
2023-03-06T06:39:34.787Z,14.00
2023-03-06T06:42:26.190Z,11.65
2023-03-06T06:44:49.689Z,13.10
2023-03-06T06:47:22.985Z,10.77
2023-03-06T06:49:52.801Z,14.57
2023-03-06T06:52:20.469Z,9.88
2023-03-06T06:54:47.987Z,11.45
2023-03-06T06:57:15.553Z,11.93
2023-03-06T06:59:43.007Z,15.77
2023-03-06T07:02:13.905Z,11.40
2023-03-06T07:04:56.197Z,11.40
2023-03-06T07:07:28.890Z,14.45
2023-03-06T07:09:56.745Z,18.57
2023-03-06T07:12:24.258Z,18.98
2023-03-06T07:14:51.702Z,19.92
2023-03-06T07:17:19.160Z,13.95
2023-03-06T07:19:46.616Z,11.93
2023-03-06T07:22:14.393Z,14.27
2023-03-06T07:24:41.844Z,13.85
2023-03-06T07:27:09.293Z,12.95
2023-03-06T07:29:37.450Z,14.20
2023-03-06T07:32:05.310Z,11.52
2023-03-06T07:34:32.806Z,11.77
2023-03-06T07:37:00.211Z,14.60
2023-03-06T07:39:28.249Z,11.63
2023-03-06T07:41:55.734Z,12.85
2023-03-06T07:44:23.374Z,11.85
2023-03-06T07:46:50.874Z,14.27
2023-03-06T07:49:18.302Z,13.30
2023-03-06T07:51:45.761Z,13.07
2023-03-06T07:54:13.237Z,16.02
2023-03-06T07:56:40.702Z,13.20
2023-03-06T07:59:08.214Z,10.63
2023-03-06T08:01:36.513Z,13.93
2023-03-06T08:04:04.405Z,15.65
2023-03-06T08:06:31.894Z,12.68
2023-03-06T08:08:59.323Z,9.90
2023-03-06T08:11:27.311Z,15.67
2023-03-06T08:13:55.116Z,11.07
2023-03-06T08:16:23.001Z,13.10
2023-03-06T08:18:50.458Z,22.35
2023-03-06T08:21:25.177Z,16.83
2023-03-06T08:23:52.621Z,12.97
2023-03-06T08:26:20.943Z,14.70
2023-03-06T08:28:48.338Z,13.50
2023-03-06T08:31:28.780Z,14.05
2023-03-06T08:33:56.522Z,12.43
2023-03-06T08:36:24.141Z,13.07
2023-03-06T08:38:51.680Z,11.50
2023-03-06T08:41:20.401Z,12.63
2023-03-06T08:43:48.115Z,14.70
2023-03-06T08:46:15.579Z,11.52
2023-03-06T08:48:43.083Z,14.03
2023-03-06T08:51:10.644Z,16.05
2023-03-06T08:53:43.424Z,14.02
2023-03-06T08:56:27.517Z,14.40
2023-03-06T08:58:55.171Z,12.05
2023-03-06T09:01:25.809Z,16.50
2023-03-06T09:03:56.461Z,12.32
2023-03-06T09:06:24.098Z,14.35
2023-03-06T09:08:54.764Z,11.00
2023-03-06T09:11:22.728Z,12.43
2023-03-06T09:13:50.359Z,16.57
2023-03-06T09:16:17.986Z,14.85
2023-03-06T09:18:45.504Z,11.50
2023-03-06T09:21:13.487Z,16.90
2023-03-06T09:23:41.022Z,11.98
2023-03-06T09:26:08.703Z,12.60
2023-03-06T09:28:36.745Z,13.68
2023-03-06T09:31:08.010Z,13.82
2023-03-06T09:33:35.529Z,15.68
2023-03-06T09:36:02.971Z,11.48
2023-03-06T09:38:30.662Z,11.27
2023-03-06T09:40:58.368Z,16.98
2023-03-06T09:43:38.170Z,11.55
2023-03-06T09:46:14.463Z,14.43
2023-03-06T09:48:48.501Z,14.70
2023-03-06T09:51:16.446Z,17.03
2023-03-06T09:54:19.589Z,13.35
2023-03-06T09:56:48.266Z,16.58
2023-03-06T09:59:21.100Z,15.23
2023-03-06T10:01:59.066Z,10.35
2023-03-06T10:04:29.757Z,15.03
2023-03-06T10:06:57.650Z,13.85
2023-03-06T10:09:51.454Z,14.07
2023-03-06T10:12:18.956Z,14.38
2023-03-06T10:14:49.242Z,14.93
2023-03-06T10:17:18.907Z,12.13
2023-03-06T10:19:49.895Z,12.32
2023-03-06T10:22:23.303Z,11.73
2023-03-06T10:25:09.503Z,18.98
2023-03-06T10:27:40.659Z,15.20
2023-03-06T10:30:11.329Z,17.53
2023-03-06T10:32:58.673Z,13.95
2023-03-06T10:35:37.449Z,16.27
2023-03-06T10:38:16.828Z,16.75
2023-03-06T10:40:47.410Z,15.45
2023-03-06T10:43:15.138Z,16.07
2023-03-06T10:45:49.826Z,15.20
2023-03-06T10:48:24.557Z,18.70
2023-03-06T10:50:52.979Z,17.75
2023-03-06T10:53:21.904Z,15.35
2023-03-06T10:55:53.215Z,17.53
2023-03-06T10:58:24.825Z,15.48
2023-03-06T11:01:00.746Z,13.07
2023-03-06T11:03:28.543Z,14.60
2023-03-06T11:05:56.058Z,22.13
2023-03-06T11:08:23.807Z,18.07
2023-03-06T11:11:00.511Z,15.80
2023-03-06T11:13:28.990Z,16.65
2023-03-06T11:15:57.258Z,14.85
2023-03-06T11:18:28.514Z,16.95
2023-03-06T11:20:59.530Z,16.43
2023-03-06T11:23:30.180Z,17.70
2023-03-06T11:25:58.348Z,21.42
2023-03-06T11:28:40.824Z,14.27
2023-03-06T11:31:10.473Z,21.58
2023-03-06T11:33:37.906Z,19.17
2023-03-06T11:36:09.655Z,17.95
2023-03-06T11:38:45.530Z,17.00
2023-03-06T11:41:28.439Z,16.60
2023-03-06T11:43:57.985Z,17.35
2023-03-06T11:46:26.298Z,16.63
2023-03-06T11:48:54.686Z,22.77
2023-03-06T11:51:25.774Z,22.02
2023-03-06T11:53:53.478Z,14.98
2023-03-06T11:56:23.561Z,17.42
2023-03-06T11:59:07.713Z,22.13
2023-03-06T12:01:59.276Z,14.57
2023-03-06T12:04:32.974Z,16.92
2023-03-06T12:07:00.498Z,24.05
2023-03-06T12:09:33.754Z,18.67
2023-03-06T12:12:08.318Z,20.57
2023-03-06T12:14:51.110Z,21.52
2023-03-06T12:17:37.497Z,23.10
2023-03-06T12:20:27.803Z,14.45
2023-03-06T12:23:02.512Z,17.77
2023-03-06T12:25:49.292Z,17.80
2023-03-06T12:28:29.742Z,16.60
2023-03-06T12:31:09.585Z,17.15
2023-03-06T12:33:55.851Z,15.52
2023-03-06T12:36:23.327Z,19.90
2023-03-06T12:38:53.994Z,19.17
2023-03-06T12:41:21.421Z,17.35
2023-03-06T12:44:07.934Z,17.08
2023-03-06T12:46:45.662Z,23.08
2023-03-06T12:49:23.099Z,17.33
2023-03-06T12:51:57.753Z,21.90
2023-03-06T12:54:25.950Z,23.38
2023-03-06T12:56:53.652Z,20.02
2023-03-06T12:59:39.836Z,16.67
2023-03-06T13:02:22.362Z,17.10
2023-03-06T13:05:08.723Z,17.43
2023-03-06T13:07:55.727Z,15.30
2023-03-06T13:10:23.417Z,17.02
2023-03-06T13:12:50.874Z,18.13
2023-03-06T13:15:21.225Z,17.50
2023-03-06T13:17:48.758Z,21.30
2023-03-06T13:20:16.424Z,22.35
2023-03-06T13:22:44.361Z,19.95
2023-03-06T13:25:18.063Z,15.90
2023-03-06T13:28:00.957Z,14.80
2023-03-06T13:30:37.628Z,18.30
2023-03-06T13:33:25.903Z,17.08
2023-03-06T13:35:54.327Z,17.40
2023-03-06T13:38:30.142Z,17.65
2023-03-06T13:41:16.115Z,16.92
2023-03-06T13:43:45.331Z,22.33
2023-03-06T13:46:45.288Z,16.35
2023-03-06T13:49:15.869Z,15.52
2023-03-06T13:51:53.052Z,16.45
2023-03-06T13:54:30.342Z,19.05
2023-03-06T13:57:16.546Z,48.63
2023-03-06T13:59:44.030Z,22.73
2023-03-06T14:02:34.696Z,17.75
2023-03-06T14:05:02.259Z,38.58
2023-03-06T14:07:41.503Z,16.13
2023-03-06T14:10:10.735Z,17.80
2023-03-06T14:12:39.263Z,16.85
2023-03-06T14:15:12.936Z,22.38
2023-03-06T14:17:53.706Z,15.75
2023-03-06T14:20:21.277Z,15.95
2023-03-06T14:22:48.786Z,16.83
2023-03-06T14:25:29.427Z,13.93
2023-03-06T14:28:05.652Z,19.83
2023-03-06T14:30:40.057Z,13.85
2023-03-06T14:33:11.102Z,18.80
2023-03-06T14:35:38.568Z,16.60
2023-03-06T14:38:09.278Z,18.10
2023-03-06T14:40:45.620Z,20.40
2023-03-06T14:43:29.091Z,18.52
2023-03-06T14:45:57.663Z,16.40
2023-03-06T14:48:25.963Z,20.87
2023-03-06T14:50:54.232Z,18.83
2023-03-06T14:53:26.124Z,18.45
2023-03-06T14:55:58.966Z,17.58
2023-03-06T14:58:39.696Z,18.08
2023-03-06T15:01:07.844Z,20.27
2023-03-06T15:03:39.552Z,17.73
2023-03-06T15:06:07.026Z,16.38
2023-03-06T15:08:35.025Z,18.70
2023-03-06T15:11:03.591Z,16.15
2023-03-06T15:13:31.481Z,17.60
2023-03-06T15:16:00.086Z,16.08
2023-03-06T15:18:50.721Z,15.93
2023-03-06T15:21:19.046Z,29.02
2023-03-06T15:23:47.419Z,19.17
2023-03-06T15:26:36.657Z,20.97
2023-03-06T15:29:10.812Z,16.05
2023-03-06T15:31:39.068Z,16.25
2023-03-06T15:34:09.688Z,20.42
2023-03-06T15:36:43.253Z,15.48
2023-03-06T15:39:29.009Z,19.00
2023-03-06T15:41:57.968Z,17.05
2023-03-06T15:44:25.387Z,16.83
2023-03-06T15:47:07.736Z,16.02
2023-03-06T15:49:36.873Z,17.50
2023-03-06T15:52:04.367Z,14.17
2023-03-06T15:54:34.818Z,15.82
2023-03-06T15:57:04.229Z,16.67
2023-03-06T15:59:33.097Z,16.13
2023-03-06T16:02:04.401Z,17.20
2023-03-06T16:04:32.206Z,15.23
2023-03-06T16:06:59.711Z,15.13
2023-03-06T16:09:27.223Z,14.80
2023-03-06T16:11:54.778Z,14.23
2023-03-06T16:14:24.044Z,16.83
2023-03-06T16:16:52.121Z,17.03
2023-03-06T16:19:28.096Z,17.38
2023-03-06T16:21:55.977Z,19.95
2023-03-06T16:24:24.832Z,19.52
2023-03-06T16:26:52.695Z,17.83
2023-03-06T16:29:21.135Z,18.13
2023-03-06T16:31:48.655Z,16.92
2023-03-06T16:34:16.450Z,14.55
2023-03-06T16:36:44.078Z,14.30
2023-03-06T16:39:14.307Z,13.88
2023-03-06T16:41:42.129Z,15.53
2023-03-06T16:44:10.264Z,14.93
2023-03-06T16:46:38.352Z,13.45
2023-03-06T16:49:05.821Z,16.75
2023-03-06T16:51:33.790Z,17.33
2023-03-06T16:54:01.507Z,16.13
2023-03-06T16:56:29.005Z,18.50
2023-03-06T16:58:56.453Z,16.88
2023-03-06T17:01:24.296Z,16.27
2023-03-06T17:03:51.885Z,13.93
2023-03-06T17:06:20.464Z,14.07
2023-03-06T17:08:48.465Z,12.55
2023-03-06T17:11:16.525Z,16.60
2023-03-06T17:13:44.051Z,16.20
2023-03-06T17:16:16.364Z,16.90
2023-03-06T17:18:44.590Z,15.10
2023-03-06T17:21:12.264Z,16.42
2023-03-06T17:23:39.925Z,14.15
2023-03-06T17:26:08.583Z,20.95
2023-03-06T17:28:36.922Z,14.98
2023-03-06T17:31:05.333Z,17.77
2023-03-06T17:33:33.468Z,23.77
2023-03-06T17:36:01.318Z,18.77
2023-03-06T17:38:28.893Z,17.30
2023-03-06T17:40:56.753Z,19.00
2023-03-06T17:43:24.427Z,16.73
2023-03-06T17:45:52.263Z,18.80
2023-03-06T17:48:20.192Z,18.30
2023-03-06T17:50:54.826Z,62.38
2023-03-06T17:53:23.162Z,19.00
2023-03-06T17:55:51.186Z,19.30
2023-03-06T17:58:19.033Z,16.02
2023-03-06T18:00:46.479Z,21.92
2023-03-06T18:03:14.258Z,20.13
2023-03-06T18:05:41.692Z,22.20
2023-03-06T18:08:10.320Z,42.80
2023-03-06T18:10:41.374Z,37.97
2023-03-06T18:13:09.370Z,31.95
2023-03-06T18:15:40.762Z,25.20
2023-03-06T18:18:08.715Z,28.10
2023-03-06T18:20:41.354Z,29.47
2023-03-06T18:23:09.397Z,28.55
2023-03-06T18:25:37.181Z,31.38
2023-03-06T18:28:06.012Z,28.60
2023-03-06T18:30:37.200Z,30.75
2023-03-06T18:33:06.469Z,22.70
2023-03-06T18:35:34.427Z,25.42
2023-03-06T18:38:01.899Z,29.05
2023-03-06T18:40:29.767Z,26.98
2023-03-06T18:42:57.512Z,19.70
2023-03-06T18:45:25.255Z,20.63
2023-03-06T18:47:52.977Z,20.73
2023-03-06T18:50:20.702Z,18.35
2023-03-06T18:52:48.424Z,19.42
2023-03-06T18:55:16.257Z,25.85
2023-03-06T18:57:44.125Z,19.53
2023-03-06T19:00:12.576Z,30.35
2023-03-06T19:02:40.357Z,33.97
2023-03-06T19:05:08.164Z,18.63
2023-03-06T19:07:36.081Z,19.30
2023-03-06T19:10:04.005Z,18.03
2023-03-06T19:12:33.862Z,18.83
2023-03-06T19:15:03.070Z,16.48
2023-03-06T19:17:31.687Z,21.30
2023-03-06T19:19:59.441Z,16.50
2023-03-06T19:22:27.216Z,17.60
2023-03-06T19:24:54.940Z,15.50
2023-03-06T19:27:22.497Z,21.45
2023-03-06T19:29:50.748Z,17.65
2023-03-06T19:32:18.700Z,19.00
2023-03-06T19:34:48.835Z,17.43
2023-03-06T19:37:17.618Z,17.17
2023-03-06T19:39:45.508Z,17.77
2023-03-06T19:42:14.006Z,19.20
2023-03-06T19:44:41.961Z,22.33
2023-03-06T19:47:09.661Z,20.40
2023-03-06T19:49:38.731Z,32.67
2023-03-06T19:52:07.512Z,25.85
2023-03-06T19:54:35.486Z,25.25
2023-03-06T19:57:03.482Z,26.75
2023-03-06T19:59:31.319Z,23.80
2023-03-06T20:01:58.892Z,19.58
2023-03-06T20:04:26.807Z,14.75
2023-03-06T20:06:56.284Z,17.23
2023-03-06T20:09:24.262Z,17.90
2023-03-06T20:11:52.165Z,17.83
2023-03-06T20:14:19.965Z,20.85
2023-03-06T20:16:47.708Z,19.88
2023-03-06T20:19:15.475Z,17.60
2023-03-06T20:21:44.429Z,18.17
2023-03-06T20:24:16.630Z,18.70
2023-03-06T20:26:44.938Z,20.95
2023-03-06T20:29:13.032Z,35.83
2023-03-06T20:31:41.831Z,25.48
2023-03-06T20:34:10.809Z,22.08
2023-03-06T20:36:40.410Z,31.27
2023-03-06T20:39:09.136Z,29.27
2023-03-06T20:41:36.859Z,33.17
2023-03-06T20:44:05.346Z,27.55
2023-03-06T20:46:33.058Z,26.00
2023-03-06T20:49:04.053Z,26.80
2023-03-06T20:51:33.014Z,25.95
2023-03-06T20:54:00.941Z,27.80
2023-03-06T20:56:29.600Z,26.30
2023-03-06T20:58:57.319Z,27.48
2023-03-06T21:01:25.702Z,25.47
2023-03-06T21:03:53.399Z,26.90
2023-03-06T21:06:21.270Z,18.70
2023-03-06T21:08:49.145Z,28.23
2023-03-06T21:11:16.810Z,25.75
2023-03-06T21:13:44.281Z,21.20
2023-03-06T21:16:12.892Z,22.42
2023-03-06T21:18:40.607Z,23.20
2023-03-06T21:21:08.707Z,21.75
2023-03-06T21:23:36.122Z,23.70
2023-03-06T21:26:03.756Z,22.90
2023-03-06T21:28:31.566Z,26.73
2023-03-06T21:31:02.372Z,24.88
2023-03-06T21:33:30.048Z,24.02
2023-03-06T21:35:57.580Z,25.77
2023-03-06T21:38:25.007Z,36.13
2023-03-06T21:40:52.715Z,24.75
2023-03-06T21:43:20.153Z,19.17
2023-03-06T21:45:48.026Z,19.55
2023-03-06T21:48:15.809Z,21.83
2023-03-06T21:50:43.441Z,22.83
2023-03-06T21:53:10.916Z,29.27
2023-03-06T21:55:41.548Z,19.60
2023-03-06T21:58:08.989Z,18.70
2023-03-06T22:00:36.777Z,19.80
2023-03-06T22:03:04.848Z,31.37
2023-03-06T22:05:32.412Z,32.10
2023-03-06T22:08:00.037Z,21.60
2023-03-06T22:10:27.469Z,26.27
2023-03-06T22:12:54.997Z,25.80
2023-03-06T22:15:22.446Z,20.50
2023-03-06T22:17:49.961Z,21.40
2023-03-06T22:20:17.506Z,24.23
2023-03-06T22:22:45.063Z,22.15
2023-03-06T22:25:12.622Z,22.63
2023-03-06T22:27:40.066Z,23.70
2023-03-06T22:30:07.845Z,17.85
2023-03-06T22:32:35.362Z,20.15
2023-03-06T22:35:02.774Z,22.48
2023-03-06T22:37:30.161Z,21.48
2023-03-06T22:39:57.734Z,18.17
2023-03-06T22:42:25.128Z,19.55
2023-03-06T22:44:52.543Z,26.38
2023-03-06T22:47:20.006Z,26.52
2023-03-06T22:49:47.678Z,21.25
2023-03-06T22:52:15.372Z,25.83
2023-03-06T22:54:42.764Z,20.88
2023-03-06T22:57:10.197Z,23.63
2023-03-06T22:59:37.607Z,18.25
2023-03-06T23:02:05.124Z,20.20
2023-03-06T23:04:32.593Z,16.87
2023-03-06T23:06:59.986Z,21.48
2023-03-06T23:09:27.400Z,20.02
2023-03-06T23:11:55.016Z,19.30
2023-03-06T23:14:22.460Z,16.63
2023-03-06T23:16:49.873Z,24.27
2023-03-06T23:19:17.454Z,23.30
2023-03-06T23:21:45.275Z,21.05
2023-03-06T23:24:12.865Z,19.33
2023-03-06T23:26:40.729Z,22.35
2023-03-06T23:29:08.274Z,21.57
2023-03-06T23:31:35.743Z,19.42
2023-03-06T23:34:03.244Z,20.67
2023-03-06T23:36:31.224Z,18.88
2023-03-06T23:38:58.883Z,19.80
2023-03-06T23:41:27.233Z,17.00
2023-03-06T23:43:55.376Z,18.45
2023-03-06T23:46:23.009Z,24.02
2023-03-06T23:48:50.598Z,20.08
2023-03-06T23:51:21.537Z,17.42
2023-03-06T23:53:49.247Z,17.93
2023-03-06T23:56:16.656Z,17.30
2023-03-06T23:58:45.466Z,15.98
